Time,TemperatureF,DewpointF,PressureIn,WindDirection,WindDirectionDegrees,WindSpeedMPH,WindSpeedGustMPH,Humidity,HourlyPrecipIn,Conditions,Clouds,dailyrainin,SoftwareType,DateUTC
2016-09-28 00:03:00,31.0,30.0,-100.00,North,-9999,0.0,0.0,97,-99.99,,,-99.99,,2016-09-28 08:03:00,
2016-09-28 00:13:00,31.0,30.0,-100.00,North,-9999,0.0,0.0,97,-99.99,,,-99.99,,2016-09-28 08:13:00,
2016-09-28 00:44:00,30.0,30.0,-100.00,North,-9999,0.0,0.0,98,-99.99,,,-99.99,,2016-09-28 08:44:00,
2016-09-28 00:54:00,30.0,30.0,-100.00,North,-9999,0.0,0.0,98,-99.99,,,-99.99,,2016-09-28 08:54:00,
2016-09-28 01:03:00,30.0,30.0,-100.00,North,-9999,0.0,0.0,98,-99.99,,,-99.99,,2016-09-28 09:03:00,
2016-09-28 01:13:00,30.0,30.0,-100.00,North,-9999,0.0,0.0,98,-99.99,,,-99.99,,2016-09-28 09:13:00,
2016-09-28 01:44:00,28.0,28.0,-100.00,North,-9999,0.0,0.0,98,-99.99,,,-99.99,,2016-09-28 09:44:00,
2016-09-28 02:04:00,28.0,28.0,-100.00,North,-9999,0.0,0.0,98,-99.99,,,-99.99,,2016-09-28 10:04:00,
2016-09-28 02:15:00,28.0,28.0,-100.00,North,-9999,0.0,0.0,98,-99.99,,,-99.99,,2016-09-28 10:15:00,
2016-09-28 02:45:00,27.0,27.0,-100.00,North,-9999,0.0,0.0,98,-99.99,,,-99.99,,2016-09-28 10:45:00,
2016-09-28 03:04:00,27.0,27.0,-100.00,North,-9999,0.0,0.0,98,-99.99,,,-99.99,,2016-09-28 11:04:00,
2016-09-28 03:14:00,27.0,27.0,-100.00,North,-9999,0.0,0.0,98,-99.99,,,-99.99,,2016-09-28 11:14:00,
2016-09-28 03:46:00,27.0,27.0,-100.00,North,-9999,0.0,0.0,99,-99.99,,,-99.99,,2016-09-28 11:46:00,
2016-09-28 03:56:00,27.0,27.0,-100.00,North,-9999,0.0,0.0,99,-99.99,,,-99.99,,2016-09-28 11:56:00,
2016-09-28 04:04:00,27.0,27.0,-100.00,North,-9999,0.0,0.0,99,-99.99,,,-99.99,,2016-09-28 12:04:00,
2016-09-28 04:13:00,27.0,27.0,-100.00,North,-9999,0.0,0.0,99,-99.99,,,-99.99,,2016-09-28 12:13:00,
2016-09-28 04:39:00,26.0,26.0,-100.00,North,-9999,0.0,0.0,98,-99.99,,,-99.99,,2016-09-28 12:39:00,
2016-09-28 04:49:00,26.0,26.0,-100.00,North,-9999,0.0,0.0,98,-99.99,,,-99.99,,2016-09-28 12:49:00,
2016-09-28 04:56:00,26.0,26.0,-100.00,North,-9999,0.0,0.0,98,-99.99,,,-99.99,,2016-09-28 12:56:00,
2016-09-28 05:04:00,26.0,26.0,-100.00,North,-9999,0.0,0.0,98,-99.99,,,-99.99,,2016-09-28 13:04:00,
2016-09-28 05:14:00,26.0,26.0,-100.00,North,-9999,0.0,-999.0,98,-99.99,,,-99.99,,2016-09-28 13:14:00,
2016-09-28 05:46:00,26.0,26.0,-100.00,North,-9999,0.0,0.0,98,-99.99,,,-99.99,,2016-09-28 13:46:00,
2016-09-28 06:01:00,26.0,26.0,-100.00,North,-9999,0.0,0.0,98,-99.99,,,-99.99,,2016-09-28 14:01:00,
2016-09-28 06:13:00,26.0,26.0,-100.00,North,-9999,0.0,0.0,98,-99.99,,,-99.99,,2016-09-28 14:13:00,
2016-09-28 06:46:00,26.0,26.0,-100.00,North,-9999,0.0,-999.0,98,-99.99,,,-99.99,,2016-09-28 14:46:00,
2016-09-28 07:03:00,26.0,26.0,-100.00,North,-9999,0.0,0.0,98,-99.99,,,-99.99,,2016-09-28 15:03:00,
2016-09-28 07:13:00,26.0,26.0,-100.00,North,-9999,0.0,0.0,98,-99.99,,,-99.99,,2016-09-28 15:13:00,
2016-09-28 08:04:00,25.0,24.0,-100.00,North,-9999,0.0,0.0,97,-99.99,,,-99.99,,2016-09-28 16:04:00,
2016-09-28 09:07:00,25.0,24.0,-100.00,North,-9999,0.0,0.0,97,-99.99,,,-99.99,,2016-09-28 17:07:00,
2016-09-28 09:49:00,28.0,27.0,-100.00,North,-9999,0.0,-999.0,97,-99.99,,,-99.99,,2016-09-28 17:49:00,
2016-09-28 10:04:00,28.0,27.0,-100.00,North,-9999,0.0,0.0,97,-99.99,,,-99.99,,2016-09-28 18:04:00,
2016-09-28 10:14:00,28.0,27.0,-100.00,North,-9999,0.0,0.0,97,-99.99,,,-99.99,,2016-09-28 18:14:00,
2016-09-28 10:47:00,35.0,34.0,-100.00,North,-9999,0.0,2.0,96,-99.99,,,-99.99,,2016-09-28 18:47:00,
2016-09-28 11:05:00,35.0,34.0,-100.00,North,-9999,0.0,2.0,96,-99.99,,,-99.99,,2016-09-28 19:05:00,
2016-09-28 11:14:00,35.0,34.0,-100.00,North,-9999,0.0,2.0,96,-99.99,,,-99.99,,2016-09-28 19:14:00,
2016-09-28 11:46:00,41.0,36.0,-100.00,NNW,341,3.0,6.0,82,-99.99,,,-99.99,,2016-09-28 19:46:00,
2016-09-28 11:58:00,41.0,36.0,-100.00,NNW,341,3.0,6.0,82,-99.99,,,-99.99,,2016-09-28 19:58:00,
2016-09-28 12:04:00,41.0,36.0,-100.00,NNW,341,3.0,6.0,82,-99.99,,,-99.99,,2016-09-28 20:04:00,
2016-09-28 12:45:00,41.0,36.0,-100.00,NNW,336,2.0,6.0,82,-99.99,,,-99.99,,2016-09-28 20:45:00,
2016-09-28 12:54:00,41.0,36.0,-100.00,NNW,336,2.0,6.0,82,-99.99,,,-99.99,,2016-09-28 20:54:00,
2016-09-28 13:03:00,41.0,36.0,-100.00,NNW,336,2.0,6.0,82,-99.99,,,-99.99,,2016-09-28 21:03:00,
2016-09-28 13:13:00,41.0,36.0,-100.00,NNW,336,2.0,6.0,82,-99.99,,,-99.99,,2016-09-28 21:13:00,
2016-09-28 14:04:00,44.0,37.0,-100.00,NW,320,3.0,-999.0,75,-99.99,,,-99.99,,2016-09-28 22:04:00,
2016-09-28 14:14:00,44.0,37.0,-100.00,NW,320,3.0,5.0,75,-99.99,,,-99.99,,2016-09-28 22:14:00,
2016-09-28 14:37:00,47.0,39.0,-100.00,SSW,203,1.0,4.0,75,-99.99,,,-99.99,,2016-09-28 22:37:00,
2016-09-28 15:01:00,47.0,39.0,-100.00,SSW,203,1.0,4.0,75,-99.99,,,-99.99,,2016-09-28 23:01:00,
2016-09-28 15:14:00,47.0,39.0,-100.00,SSW,203,1.0,4.0,75,-99.99,,,-99.99,,2016-09-28 23:14:00,
2016-09-28 15:48:00,52.0,38.0,-100.00,NW,310,4.0,7.0,59,-99.99,,,-99.99,,2016-09-28 23:48:00,
2016-09-28 15:57:00,52.0,38.0,-100.00,NW,310,4.0,7.0,59,-99.99,,,-99.99,,2016-09-28 23:57:00,
2016-09-28 16:04:00,52.0,38.0,-100.00,NW,310,4.0,7.0,59,-99.99,,,-99.99,,2016-09-29 00:04:00,
2016-09-28 16:13:00,52.0,38.0,-100.00,NW,310,4.0,7.0,59,-99.99,,,-99.99,,2016-09-29 00:13:00,
2016-09-28 16:48:00,54.0,38.0,-100.00,WSW,237,2.0,8.0,55,-99.99,,,-99.99,,2016-09-29 00:48:00,